Time;durP1;ratioP1;P1;durP2;ratioP2;P2;SDS_P1;SDS_P2;PMS_P1;PMS_P2;Temp;Humidity;BMP_temperature;BMP_pressure;BME280_temperature;BME280_humidity;BME280_pressure;Samples;Min_cycle;Max_cycle;Signal;HPM_P1;HPM_P2
2022/10/15 00:04:34;;;;;;;51.60;23.50;;;;;;;9.16;99.64;98583.70;214146;1312;23928;-73
2022/10/15 00:09:36;;;;;;;56.50;26.50;;;;;;;9.21;99.70;98582.31;214139;1312;22657;-73
2022/10/15 00:14:37;;;;;;;49.90;24.30;;;;;;;9.27;99.64;98585.30;214280;1312;23934;-73
2022/10/15 00:19:39;;;;;;;53.80;25.70;;;;;;;9.31;99.78;98580.13;214339;1312;22497;-73
2022/10/15 00:24:41;;;;;;;48.20;24.50;;;;;;;9.35;99.80;98581.03;214170;1312;22600;-73
2022/10/15 00:29:43;;;;;;;47.70;23.10;;;;;;;9.41;100.00;98572.90;214190;1311;24309;-73
2022/10/15 00:34:45;;;;;;;52.90;25.40;;;;;;;9.48;100.00;98570.63;214086;1312;22494;-73
2022/10/15 00:39:47;;;;;;;50.60;26.50;;;;;;;9.52;99.97;98569.23;213909;1312;24323;-73
2022/10/15 00:44:57;;;;;;;54.70;27.60;;;;;;;9.53;99.84;98564.41;214314;1312;22515;-74
2022/10/15 00:50:10;;;;;;;53.50;27.10;;;;;;;9.52;99.71;98560.23;214184;1312;22663;-73
2022/10/15 00:55:17;;;;;;;56.40;28.50;;;;;;;9.53;99.79;98555.05;214255;1312;24290;-73
2022/10/15 01:00:19;;;;;;;66.20;31.00;;;;;;;9.55;99.85;98549.68;214256;1311;25341;-74
2022/10/15 01:05:22;;;;;;;48.50;25.60;;;;;;;9.58;99.99;98542.79;214047;1312;23311;-73
2022/10/15 01:10:34;;;;;;;56.20;28.10;;;;;;;9.63;99.97;98539.80;214167;1312;22587;-73
2022/10/15 01:15:48;;;;;;;47.30;26.70;;;;;;;9.67;100.00;98533.48;214306;1311;22669;-74
2022/10/15 01:21:11;;;;;;;43.70;23.70;;;;;;;9.70;100.00;98521.88;214177;1312;22613;-73
2022/10/15 01:26:19;;;;;;;50.50;26.50;;;;;;;9.74;100.00;98512.98;214253;1311;25308;-73
2022/10/15 01:31:46;;;;;;;46.80;23.90;;;;;;;9.75;100.00;98508.65;214160;1312;26374;-73
2022/10/15 01:37:16;;;;;;;50.10;27.50;;;;;;;9.76;99.89;98505.11;214201;1311;22723;-73
2022/10/15 01:42:33;;;;;;;42.40;23.30;;;;;;;9.73;99.78;98498.94;214211;1311;22482;-73
2022/10/15 01:47:50;;;;;;;44.50;24.40;;;;;;;9.67;99.78;98496.45;214239;1303;22969;-73
2022/10/15 01:52:55;;;;;;;47.90;26.40;;;;;;;9.61;99.72;98499.65;214257;1312;22484;-74
2022/10/15 01:57:59;;;;;;;40.20;22.80;;;;;;;9.53;99.59;98499.17;214358;1312;26489;-73
2022/10/15 02:03:02;;;;;;;49.20;25.30;;;;;;;9.45;99.73;98493.55;214307;1296;23299;-73
2022/10/15 02:08:33;;;;;;;45.50;24.40;;;;;;;9.43;99.94;98493.47;214003;1311;139422;-73
2022/10/15 02:14:02;;;;;;;39.50;23.50;;;;;;;9.43;99.92;98493.84;214153;1312;24322;-73
2022/10/15 02:19:17;;;;;;;39.70;21.60;;;;;;;9.45;99.92;98482.27;214194;1312;26101;-73
2022/10/15 02:24:42;;;;;;;44.70;24.60;;;;;;;9.42;99.85;98470.76;214240;1310;22477;-73
2022/10/15 02:29:47;;;;;;;37.30;20.00;;;;;;;9.34;99.66;98477.70;214074;1312;25400;-74
2022/10/15 02:34:52;;;;;;;34.20;19.60;;;;;;;9.25;99.67;98475.24;214217;1311;22468;-73
2022/10/15 02:39:54;;;;;;;46.20;22.40;;;;;;;9.18;99.90;98465.23;214325;1312;23916;-73
2022/10/15 02:44:57;;;;;;;40.70;22.40;;;;;;;9.13;99.95;98448.84;214265;1312;22597;-73
2022/10/15 02:49:59;;;;;;;35.30;17.70;;;;;;;9.10;100.00;98441.13;214234;1312;22475;-74
2022/10/15 02:55:01;;;;;;;39.70;20.70;;;;;;;9.07;99.99;98435.27;214174;1311;23731;-73
2022/10/15 03:00:05;;;;;;;46.90;25.10;;;;;;;9.02;100.00;98434.17;214224;1310;22468;-73
2022/10/15 03:05:08;;;;;;;50.70;26.10;;;;;;;8.95;99.88;98429.02;214163;1312;22463;-73
2022/10/15 03:10:10;;;;;;;46.70;25.30;;;;;;;8.83;99.60;98421.41;214412;1296;22508;-73
2022/10/15 03:15:12;;;;;;;46.40;25.60;;;;;;;8.72;99.57;98412.45;214411;1304;22548;-73
2022/10/15 03:20:16;;;;;;;49.80;26.80;;;;;;;8.62;99.73;98406.73;214626;1306;22460;-73
2022/10/15 03:25:18;;;;;;;51.20;27.40;;;;;;;8.50;99.55;98401.67;214587;1308;22528;-73
2022/10/15 03:30:23;;;;;;;46.80;26.20;;;;;;;8.42;99.71;98403.08;214773;1302;22471;-73
2022/10/15 03:35:25;;;;;;;51.90;27.80;;;;;;;8.36;99.95;98401.21;214726;1292;23034;-73
2022/10/15 03:40:28;;;;;;;57.90;29.80;;;;;;;8.30;100.00;98390.39;214701;1309;22479;-73
2022/10/15 03:45:32;;;;;;;53.80;29.90;;;;;;;8.25;100.00;98390.02;214731;1301;22726;-73
2022/10/15 03:50:53;;;;;;;56.90;30.50;;;;;;;8.26;100.00;98387.92;214535;1309;22496;-73
2022/10/15 03:55:55;;;;;;;49.20;27.00;;;;;;;8.30;100.00;98388.36;214491;1310;22490;-73
2022/10/15 04:00:57;;;;;;;55.50;28.70;;;;;;;8.38;100.00;98378.24;214470;1312;22475;-73
2022/10/15 04:05:59;;;;;;;51.20;28.00;;;;;;;8.44;100.00;98374.20;214460;1312;22498;-73
2022/10/15 04:11:04;;;;;;;47.40;25.90;;;;;;;8.49;100.00;98376.07;214664;1310;22491;-73
2022/10/15 04:16:06;;;;;;;44.20;25.20;;;;;;;8.55;100.00;98373.49;214407;1312;22838;-73
2022/10/15 04:21:09;;;;;;;39.80;21.60;;;;;;;8.63;100.00;98369.09;214436;1310;22464;-73
2022/10/15 04:26:11;;;;;;;54.20;28.30;;;;;;;8.67;100.00;98363.95;214755;1308;22464;-73
2022/10/15 04:31:13;;;;;;;56.50;28.70;;;;;;;8.66;100.00;98364.39;214505;1312;22474;-73
2022/10/15 04:36:16;;;;;;;56.20;28.40;;;;;;;8.66;100.00;98364.34;214590;1311;24371;-73
2022/10/15 04:41:27;;;;;;;55.20;27.00;;;;;;;8.67;100.00;98357.02;214585;1304;22501;-73
2022/10/15 04:46:33;;;;;;;47.40;25.60;;;;;;;8.69;100.00;98354.54;214529;1312;22463;-73
2022/10/15 04:51:42;;;;;;;43.00;22.70;;;;;;;8.73;100.00;98358.34;214356;1309;22601;-74
2022/10/15 04:56:51;;;;;;;38.70;22.00;;;;;;;8.81;100.00;98358.83;214712;1309;22461;-73
2022/10/15 05:01:54;;;;;;;38.30;20.90;;;;;;;8.92;100.00;98358.85;214683;1309;25033;-73
2022/10/15 05:06:56;;;;;;;43.20;23.10;;;;;;;9.06;100.00;98354.27;214550;1309;24314;-73
2022/10/15 05:11:58;;;;;;;42.50;21.70;;;;;;;9.22;100.00;98354.69;214712;1309;25364;-73
2022/10/15 05:17:02;;;;;;;41.90;21.30;;;;;;;9.36;100.00;98358.86;214756;1309;22476;-73
2022/10/15 05:22:07;;;;;;;41.30;21.60;;;;;;;9.53;100.00;98354.08;214758;1309;22477;-72
2022/10/15 05:27:13;;;;;;;40.70;22.10;;;;;;;9.72;100.00;98353.83;214547;1309;22464;-75
2022/10/15 05:32:16;;;;;;;38.10;21.20;;;;;;;9.90;100.00;98353.48;214692;1308;22480;-73
2022/10/15 05:37:18;;;;;;;36.60;20.10;;;;;;;10.06;100.00;98356.19;214717;1309;22469;-73
2022/10/15 05:42:20;;;;;;;37.50;20.90;;;;;;;10.19;100.00;98355.91;214562;1302;26551;-74
2022/10/15 05:47:26;;;;;;;38.70;21.20;;;;;;;10.29;100.00;98360.55;214693;1287;22496;-74
2022/10/15 05:52:45;;;;;;;39.90;22.10;;;;;;;10.41;100.00;98367.10;214626;1309;22471;-73
2022/10/15 05:58:02;;;;;;;36.20;21.20;;;;;;;10.54;100.00;98370.44;214732;1301;22672;-73
2022/10/15 06:03:04;;;;;;;35.40;20.50;;;;;;;10.70;100.00;98369.70;214720;1309;24449;-73
2022/10/15 06:08:06;;;;;;;40.50;22.90;;;;;;;10.88;100.00;98372.41;214624;1309;24337;-74
2022/10/15 06:13:08;;;;;;;41.60;23.70;;;;;;;11.04;100.00;98376.94;214630;1309;22484;-74
2022/10/15 06:18:14;;;;;;;44.90;23.70;;;;;;;11.17;100.00;98376.40;214771;1309;23225;-75
2022/10/15 06:23:16;;;;;;;44.30;25.10;;;;;;;11.25;99.99;98375.69;214728;1309;22732;-73
2022/10/15 06:28:18;;;;;;;41.80;22.60;;;;;;;11.33;99.96;98376.52;214624;1309;22475;-73
2022/10/15 06:33:20;;;;;;;36.90;21.10;;;;;;;11.43;99.91;98380.86;214751;1309;22737;-72
2022/10/15 06:38:23;;;;;;;37.20;20.40;;;;;;;11.54;99.75;98381.70;214998;1284;22603;-73
2022/10/15 06:43:25;;;;;;;33.60;19.90;;;;;;;11.65;99.74;98382.81;215018;1284;22474;-72
2022/10/15 06:48:33;;;;;;;32.30;19.30;;;;;;;11.80;99.63;98388.90;214789;1284;25338;-72
2022/10/15 06:53:35;;;;;;;32.80;19.70;;;;;;;12.01;99.53;98394.83;214891;1285;22516;-72
2022/10/15 06:58:41;;;;;;;31.20;19.70;;;;;;;12.23;99.38;98396.95;214993;1294;22493;-73
2022/10/15 07:03:43;;;;;;;28.10;17.20;;;;;;;12.45;99.08;98400.69;215430;1288;26554;-73
2022/10/15 07:08:45;;;;;;;23.40;15.70;;;;;;;12.64;98.73;98408.27;214969;1284;23332;-72
2022/10/15 07:13:46;;;;;;;27.80;17.70;;;;;;;12.81;98.32;98412.48;214882;1284;26406;-73
2022/10/15 07:18:49;;;;;;;22.40;14.40;;;;;;;12.98;98.05;98408.19;215020;1282;23348;-73
2022/10/15 07:23:50;;;;;;;26.10;17.00;;;;;;;13.11;97.50;98407.48;214920;1285;24992;-74
2022/10/15 07:28:52;;;;;;;28.00;19.00;;;;;;;13.24;97.40;98415.14;215006;1309;22465;-74
2022/10/15 07:33:54;;;;;;;26.10;16.80;;;;;;;13.33;97.06;98424.17;214870;1309;25274;-74
2022/10/15 07:38:56;;;;;;;29.80;18.90;;;;;;;13.40;96.47;98427.72;214954;1295;23739;-73
2022/10/15 07:43:58;;;;;;;33.00;20.00;;;;;;;13.50;96.49;98417.83;214911;1312;25400;-75
2022/10/15 07:48:59;;;;;;;30.80;18.70;;;;;;;13.65;96.32;98411.55;215001;1309;22485;-73
2022/10/15 07:54:01;;;;;;;28.40;17.00;;;;;;;13.80;95.93;98418.34;214838;1288;22482;-74
2022/10/15 07:59:03;;;;;;;28.60;18.60;;;;;;;13.90;95.53;98427.63;214814;1310;22541;-74
2022/10/15 08:04:05;;;;;;;29.20;19.20;;;;;;;14.00;95.40;98437.83;214816;1309;22514;-74
2022/10/15 08:09:09;;;;;;;29.90;18.70;;;;;;;14.10;95.25;98440.48;214927;1285;22477;-72
2022/10/15 08:14:10;;;;;;;30.90;20.50;;;;;;;14.20;94.90;98441.20;214882;1284;22471;-74
2022/10/15 08:19:16;;;;;;;30.30;19.30;;;;;;;14.32;94.75;98447.80;214983;1278;22978;-74
2022/10/15 08:24:19;;;;;;;26.30;17.20;;;;;;;14.50;94.56;98446.83;215068;1284;22600;-74
2022/10/15 08:29:21;;;;;;;33.10;23.50;;;;;;;14.65;93.58;98438.36;214927;1294;22967;-74
2022/10/15 08:34:23;;;;;;;26.80;18.90;;;;;;;14.80;93.22;98433.02;215005;1284;25354;-74
2022/10/15 08:39:25;;;;;;;23.60;15.20;;;;;;;15.05;93.04;98437.03;215064;1283;22609;-72
2022/10/15 08:44:30;;;;;;;21.80;15.60;;;;;;;15.30;92.34;98436.66;215052;1284;22605;-72
2022/10/15 08:49:49;;;;;;;23.70;15.40;;;;;;;15.68;91.96;98440.77;215025;1284;22481;-73
2022/10/15 08:54:54;;;;;;;18.30;13.00;;;;;;;16.05;90.61;98442.10;214934;1293;22654;-72
2022/10/15 09:00:20;;;;;;;16.60;12.70;;;;;;;16.36;88.62;98444.90;214781;1288;22487;-73
2022/10/15 09:05:44;;;;;;;15.60;11.50;;;;;;;16.57;86.06;98443.99;214938;1310;25444;-73
2022/10/15 09:11:12;;;;;;;16.90;12.20;;;;;;;16.70;85.22;98450.14;215092;1309;22519;-71
2022/10/15 09:16:21;;;;;;;15.00;11.20;;;;;;;16.78;84.04;98457.34;215176;1309;22467;-73
2022/10/15 09:21:26;;;;;;;14.70;10.90;;;;;;;16.88;83.84;98456.38;214725;1309;25353;-72
2022/10/15 09:26:41;;;;;;;12.80;9.60;;;;;;;16.87;82.59;98455.94;214959;1306;22466;-72
2022/10/15 09:31:54;;;;;;;15.00;10.00;;;;;;;16.85;82.34;98451.84;215444;1285;22752;-71
2022/10/15 09:37:16;;;;;;;15.00;8.80;;;;;;;16.88;81.24;98453.66;215202;1284;22524;-72
2022/10/15 09:42:37;;;;;;;14.70;9.90;;;;;;;16.97;81.07;98453.81;214963;1284;22486;-71
2022/10/15 09:47:41;;;;;;;14.20;8.50;;;;;;;17.16;80.92;98462.27;215563;1283;22683;-72
2022/10/15 09:53:08;;;;;;;16.90;9.60;;;;;;;17.27;79.20;98467.64;215405;1288;22524;-72
2022/10/15 09:58:19;;;;;;;12.00;9.50;;;;;;;17.30;78.38;98470.80;215037;1284;22497;-73
2022/10/15 10:03:24;;;;;;;13.40;8.90;;;;;;;17.28;77.68;98470.61;215647;1283;25262;-73
2022/10/15 10:08:31;;;;;;;10.80;8.90;;;;;;;17.31;77.34;98470.05;215104;1282;25373;-72
2022/10/15 10:13:43;;;;;;;9.80;7.70;;;;;;;17.35;76.39;98476.22;215028;1285;23170;-73
2022/10/15 10:19:14;;;;;;;13.90;8.00;;;;;;;17.31;75.01;98472.93;215692;1283;25373;-72
2022/10/15 10:24:30;;;;;;;14.70;6.70;;;;;;;17.25;74.07;98468.65;214931;1279;22481;-73
2022/10/15 10:29:40;;;;;;;9.70;6.40;;;;;;;17.33;73.69;98469.11;214966;1284;25469;-73
2022/10/15 10:34:43;;;;;;;18.40;6.50;;;;;;;17.47;71.11;98478.38;215194;1285;22528;-73
2022/10/15 10:39:58;;;;;;;7.80;6.10;;;;;;;17.64;70.48;98478.16;215119;1301;22493;-73
2022/10/15 10:45:16;;;;;;;10.80;6.20;;;;;;;17.80;70.07;98480.88;215068;1285;22476;-74
2022/10/15 10:50:31;;;;;;;;;;;;;;;17.82;68.53;98475.59;215075;1283;24061;-74
2022/10/15 10:55:38;;;;;;;6.30;5.10;;;;;;;17.81;68.79;98477.17;214974;1284;22496;-74
2022/10/15 11:00:45;;;;;;;10.60;6.90;;;;;;;17.77;68.12;98474.04;215085;1284;22468;-73
2022/10/15 11:05:52;;;;;;;18.50;5.90;;;;;;;17.76;67.45;98470.98;214627;1309;26403;-73
2022/10/15 11:11:11;;;;;;;8.30;5.50;;;;;;;17.81;67.76;98462.14;214484;1309;22498;-76
2022/10/15 11:16:35;;;;;;;9.40;5.90;;;;;;;17.84;65.86;98462.02;214629;1303;22560;-74
2022/10/15 11:21:57;;;;;;;8.80;5.50;;;;;;;17.89;65.78;98466.04;214770;1309;24304;-74
2022/10/15 11:27:41;;;;;;;11.10;6.20;;;;;;;17.91;64.71;98470.06;214671;1309;22669;-74
2022/10/15 11:32:46;;;;;;;10.10;6.10;;;;;;;17.95;66.26;98463.66;214634;1309;22521;-74
2022/10/15 11:38:21;;;;;;;6.30;5.40;;;;;;;17.95;64.87;98465.83;214684;1309;25374;-73
2022/10/15 11:43:47;;;;;;;9.70;5.70;;;;;;;17.83;64.94;98462.98;214570;1309;25367;-73
2022/10/15 11:49:15;;;;;;;9.30;5.10;;;;;;;17.75;66.12;98469.12;214605;1307;22643;-73
2022/10/15 11:54:59;;;;;;;7.80;5.00;;;;;;;17.70;66.04;98467.48;214586;1309;22634;-73
2022/10/15 12:00:10;;;;;;;9.70;6.40;;;;;;;17.68;66.65;98461.08;214717;1309;22983;-72
2022/10/15 12:05:27;;;;;;;7.30;5.20;;;;;;;17.67;65.51;98460.84;214794;1309;22519;-74
2022/10/15 12:10:48;;;;;;;8.00;5.50;;;;;;;17.64;66.44;98459.36;214569;1309;22454;-74
2022/10/15 12:16:03;;;;;;;8.70;6.40;;;;;;;17.69;67.37;98458.55;214555;1309;22556;-73
2022/10/15 12:21:38;;;;;;;9.50;7.00;;;;;;;17.74;66.47;98451.42;214474;1309;25472;-73
2022/10/15 12:26:40;;;;;;;9.50;5.60;;;;;;;17.87;65.81;98441.96;214495;1309;22938;-74
2022/10/15 12:31:48;;;;;;;8.70;6.50;;;;;;;17.92;66.49;98441.68;214433;1309;22471;-74
2022/10/15 12:36:59;;;;;;;7.80;6.00;;;;;;;18.01;66.14;98438.58;214749;1309;22475;-74
2022/10/15 12:42:01;;;;;;;8.60;5.90;;;;;;;18.05;66.73;98431.64;214534;1309;22466;-73
2022/10/15 12:47:03;;;;;;;11.70;6.50;;;;;;;18.09;67.05;98435.84;214628;1309;22520;-74
2022/10/15 12:52:43;;;;;;;8.40;5.70;;;;;;;18.11;67.60;98432.59;214651;1308;22549;-73
2022/10/15 12:57:45;;;;;;;7.30;5.70;;;;;;;18.17;67.61;98428.79;214693;1309;24301;-74
2022/10/15 13:02:48;;;;;;;8.40;6.20;;;;;;;18.26;67.84;98433.90;214761;1304;24342;-73
2022/10/15 13:07:51;;;;;;;9.50;7.30;;;;;;;18.30;67.78;98437.78;214798;1308;23605;-72
2022/10/15 13:12:56;;;;;;;10.80;7.10;;;;;;;18.27;67.70;98434.08;214561;1309;24345;-73
2022/10/15 13:18:06;;;;;;;10.30;7.80;;;;;;;18.21;67.53;98444.98;214924;1309;23067;-74
2022/10/15 13:23:10;;;;;;;;;;;;;;;18.18;68.49;98441.34;214639;1309;22664;-73
2022/10/15 13:28:36;;;;;;;12.60;9.50;;;;;;;18.25;68.64;98435.20;214592;1308;22518;-73
2022/10/15 13:33:41;;;;;;;12.80;9.40;;;;;;;18.30;68.55;98425.02;214666;1304;22472;-73
2022/10/15 13:38:52;;;;;;;16.10;9.90;;;;;;;18.26;68.22;98436.75;214609;1301;23077;-74
2022/10/15 13:43:57;;;;;;;9.10;6.90;;;;;;;18.14;66.90;98441.39;214512;1309;22493;-75
2022/10/15 13:49:02;;;;;;;7.40;5.60;;;;;;;18.00;65.65;98447.15;214603;1309;22529;-72
2022/10/15 13:54:09;;;;;;;7.70;5.90;;;;;;;17.84;64.92;98450.10;214666;1309;25260;-74
2022/10/15 13:59:16;;;;;;;8.70;5.00;;;;;;;17.75;64.70;98461.35;214557;1309;22595;-74
2022/10/15 14:04:21;;;;;;;7.60;5.40;;;;;;;17.65;64.25;98459.85;214787;1309;22530;-73
2022/10/15 14:09:32;;;;;;;7.90;5.50;;;;;;;17.58;64.30;98457.86;214699;1309;151938;-72
2022/10/15 14:14:48;;;;;;;7.30;5.50;;;;;;;17.52;64.69;98459.48;214774;1309;22515;-72
2022/10/15 14:19:57;;;;;;;8.50;5.60;;;;;;;17.48;64.52;98465.95;214616;1306;22515;-73
2022/10/15 14:25:23;;;;;;;7.80;5.20;;;;;;;17.42;64.67;98467.17;214646;1309;23786;-73
2022/10/15 14:30:25;;;;;;;7.50;5.50;;;;;;;17.38;64.34;98466.56;214539;1297;22499;-74
2022/10/15 14:35:34;;;;;;;10.20;6.60;;;;;;;17.37;64.43;98463.20;214667;1309;22583;-73
2022/10/15 14:40:36;;;;;;;7.50;5.50;;;;;;;17.37;65.03;98471.19;214714;1309;22478;-73
2022/10/15 14:45:49;;;;;;;10.60;6.70;;;;;;;17.34;65.06;98465.58;214676;1309;22480;-75
2022/10/15 14:50:56;;;;;;;8.50;6.30;;;;;;;17.25;65.76;98459.70;214703;1309;25223;-73
2022/10/15 14:56:08;;;;;;;9.50;5.90;;;;;;;17.14;66.19;98463.98;214624;1309;22491;-74
2022/10/15 15:01:14;;;;;;;9.90;6.20;;;;;;;17.03;66.49;98468.89;214586;1293;22529;-73
2022/10/15 15:06:17;;;;;;;9.30;6.10;;;;;;;16.93;66.77;98456.83;214660;1307;22469;-73
2022/10/15 15:11:24;;;;;;;11.50;6.80;;;;;;;16.84;67.26;98460.85;214601;1304;22522;-74
2022/10/15 15:16:26;;;;;;;13.50;7.90;;;;;;;16.74;67.33;98470.02;214567;1309;25234;-73
2022/10/15 15:21:28;;;;;;;13.10;7.00;;;;;;;16.63;67.61;98475.77;214443;1306;22474;-73
2022/10/15 15:26:29;;;;;;;10.20;7.20;;;;;;;16.52;67.94;98486.39;214789;1284;22510;-73
2022/10/15 15:31:32;;;;;;;11.00;7.20;;;;;;;16.39;68.20;98483.48;214660;1285;24303;-73
2022/10/15 15:36:34;;;;;;;15.70;8.50;;;;;;;16.24;68.56;98486.61;214611;1310;24300;-74
2022/10/15 15:41:36;;;;;;;12.80;8.30;;;;;;;16.10;69.01;98484.39;214449;1310;22599;-74
2022/10/15 15:46:37;;;;;;;12.60;8.30;;;;;;;15.95;69.35;98480.09;214496;1310;23107;-72
2022/10/15 15:51:39;;;;;;;12.80;7.20;;;;;;;15.80;69.89;98479.06;214642;1310;22601;-74
2022/10/15 15:56:41;;;;;;;12.20;7.90;;;;;;;15.67;70.37;98484.45;214544;1277;22526;-73
2022/10/15 16:01:45;;;;;;;16.30;9.30;;;;;;;15.56;70.71;98485.80;214746;1285;25336;-75
2022/10/15 16:06:47;;;;;;;13.50;8.80;;;;;;;15.45;71.21;98505.69;214527;1310;22595;-74
2022/10/15 16:11:50;;;;;;;21.90;13.60;;;;;;;15.36;71.47;98510.45;214453;1306;24447;-74
2022/10/15 16:16:51;;;;;;;32.10;17.80;;;;;;;15.29;71.76;98519.33;214454;1310;25417;-73
2022/10/15 16:21:53;;;;;;;30.00;16.30;;;;;;;15.22;72.07;98522.64;214718;1310;22601;-73
2022/10/15 16:26:55;;;;;;;22.70;12.40;;;;;;;15.16;72.45;98528.63;214559;1310;22632;-75
2022/10/15 16:31:57;;;;;;;15.60;9.40;;;;;;;15.12;72.97;98541.48;214575;1310;24233;-73
2022/10/15 16:36:58;;;;;;;13.80;8.60;;;;;;;15.05;73.62;98549.91;214660;1310;24011;-73
2022/10/15 16:42:01;;;;;;;15.80;8.90;;;;;;;14.98;74.30;98555.12;214532;1310;22594;-74
2022/10/15 16:47:03;;;;;;;13.90;9.20;;;;;;;14.90;74.63;98555.02;214673;1310;22637;-73
2022/10/15 16:52:05;;;;;;;13.50;9.10;;;;;;;14.81;75.00;98562.82;214636;1310;22554;-73
2022/10/15 16:57:07;;;;;;;15.80;8.80;;;;;;;14.72;75.38;98575.85;214568;1310;25397;-73
2022/10/15 17:02:09;;;;;;;12.50;7.70;;;;;;;14.62;75.77;98583.70;214688;1310;25352;-74
2022/10/15 17:07:11;;;;;;;12.90;8.70;;;;;;;14.51;76.28;98594.05;214468;1310;23745;-73
2022/10/15 17:12:12;;;;;;;19.40;10.40;;;;;;;14.40;76.92;98596.33;214444;1310;25431;-73
2022/10/15 17:17:14;;;;;;;11.90;8.30;;;;;;;14.28;77.39;98593.96;214589;1304;25461;-73
2022/10/15 17:22:16;;;;;;;13.40;9.20;;;;;;;14.19;77.97;98590.31;214467;1310;24287;-72
2022/10/15 17:27:18;;;;;;;13.70;8.60;;;;;;;14.10;78.60;98596.73;214467;1310;22493;-73
2022/10/15 17:32:20;;;;;;;13.70;8.90;;;;;;;14.01;78.95;98602.21;214409;1297;22525;-72
2022/10/15 17:37:21;;;;;;;11.80;8.10;;;;;;;13.91;79.69;98598.62;214505;1304;22639;-73
2022/10/15 17:42:23;;;;;;;16.40;8.80;;;;;;;13.80;80.05;98596.85;214624;1310;23162;-74
2022/10/15 17:47:26;;;;;;;13.00;8.30;;;;;;;13.73;80.17;98601.08;214613;1310;26135;-74
2022/10/15 17:52:29;;;;;;;13.60;7.40;;;;;;;13.67;80.68;98602.95;214629;1310;22680;-73
2022/10/15 17:57:31;;;;;;;13.00;8.40;;;;;;;13.58;81.10;98610.28;214635;1310;25519;-73
2022/10/15 18:02:34;;;;;;;11.90;7.60;;;;;;;13.50;81.45;98613.94;214629;1310;22576;-74
2022/10/15 18:07:35;;;;;;;10.50;7.80;;;;;;;13.42;81.98;98613.36;214458;1310;24340;-73
2022/10/15 18:12:37;;;;;;;11.30;7.50;;;;;;;13.33;82.50;98623.57;214536;1310;25371;-73
2022/10/15 18:17:39;;;;;;;13.20;9.00;;;;;;;13.27;82.87;98622.23;214510;1310;22607;-75
2022/10/15 18:22:41;;;;;;;12.40;7.90;;;;;;;13.20;83.25;98633.05;214464;1310;25467;-74
2022/10/15 18:27:43;;;;;;;16.90;8.90;;;;;;;13.15;83.73;98634.16;214490;1310;23355;-73
2022/10/15 18:32:44;;;;;;;17.90;11.50;;;;;;;13.09;84.01;98639.41;214384;1304;22574;-73
2022/10/15 18:37:48;;;;;;;18.20;11.40;;;;;;;13.06;84.60;98641.96;214482;1296;22477;-72
2022/10/15 18:42:50;;;;;;;16.40;9.90;;;;;;;13.04;84.72;98651.77;214545;1310;24283;-73
2022/10/15 18:47:53;;;;;;;15.40;9.60;;;;;;;13.01;85.01;98651.96;214619;1310;25272;-73
2022/10/15 18:52:55;;;;;;;16.30;10.70;;;;;;;13.00;85.29;98644.05;214488;1304;22593;-73
2022/10/15 18:58:00;;;;;;;15.20;10.40;;;;;;;12.98;85.44;98637.74;214563;1310;22495;-73
2022/10/15 19:03:03;;;;;;;22.50;11.00;;;;;;;12.97;85.82;98636.44;214575;1310;24259;-72
2022/10/15 19:08:05;;;;;;;20.30;11.90;;;;;;;12.96;85.90;98638.77;214536;1303;22588;-74
2022/10/15 19:13:07;;;;;;;22.70;14.00;;;;;;;12.97;85.87;98648.50;214722;1310;22562;-73
2022/10/15 19:18:10;;;;;;;23.40;14.00;;;;;;;12.98;85.94;98656.84;214510;1310;25323;-73
2022/10/15 19:23:12;;;;;;;19.60;12.60;;;;;;;12.98;85.90;98662.64;214538;1310;22486;-74
2022/10/15 19:28:14;;;;;;;19.50;12.10;;;;;;;12.98;86.12;98661.91;214567;1310;24258;-73
2022/10/15 19:33:18;;;;;;;23.30;14.20;;;;;;;12.96;86.10;98664.15;214540;1298;22480;-73
2022/10/15 19:38:21;;;;;;;22.10;12.30;;;;;;;12.96;86.25;98668.30;214460;1310;24123;-73
2022/10/15 19:43:23;;;;;;;24.40;12.60;;;;;;;12.97;86.25;98665.27;214595;1310;22500;-73
2022/10/15 19:48:25;;;;;;;21.10;12.30;;;;;;;12.98;86.25;98666.91;214638;1310;25471;-73
2022/10/15 19:53:27;;;;;;;20.80;12.30;;;;;;;12.99;86.44;98670.21;214585;1310;22605;-74
2022/10/15 19:58:29;;;;;;;23.30;13.30;;;;;;;12.99;86.39;98669.77;214557;1310;23748;-73
2022/10/15 20:03:31;;;;;;;17.80;10.80;;;;;;;13.00;86.47;98673.72;214704;1310;22466;-73
2022/10/15 20:08:36;;;;;;;18.90;11.30;;;;;;;13.03;86.45;98689.27;214545;1305;22467;-74
2022/10/15 20:13:38;;;;;;;19.30;10.80;;;;;;;13.05;86.42;98694.16;214766;1310;24403;-73
2022/10/15 20:18:41;;;;;;;17.10;10.90;;;;;;;13.06;86.49;98701.29;214482;1310;22479;-73
2022/10/15 20:23:45;;;;;;;17.50;9.80;;;;;;;13.07;86.56;98706.64;214653;1304;23969;-73
2022/10/15 20:28:47;;;;;;;19.20;10.60;;;;;;;13.06;86.46;98703.88;214659;1297;22599;-74
2022/10/15 20:33:49;;;;;;;15.70;10.60;;;;;;;13.03;86.44;98705.60;214451;1310;22496;-73
2022/10/15 20:38:51;;;;;;;18.30;11.30;;;;;;;13.00;86.57;98714.11;214579;1310;25291;-73
2022/10/15 20:43:55;;;;;;;16.50;10.40;;;;;;;12.99;86.67;98723.56;214555;1293;22476;-73
2022/10/15 20:49:01;;;;;;;18.20;11.10;;;;;;;12.96;86.72;98719.38;214442;1310;23208;-72
2022/10/15 20:54:11;;;;;;;17.40;10.10;;;;;;;12.96;86.77;98723.89;214539;1310;25266;-73
2022/10/15 20:59:13;;;;;;;16.20;8.70;;;;;;;12.94;86.86;98731.41;214545;1310;24290;-74
2022/10/15 21:04:16;;;;;;;17.60;9.70;;;;;;;12.93;87.09;98738.65;214507;1310;22485;-73
2022/10/15 21:09:22;;;;;;;16.50;9.20;;;;;;;12.94;87.10;98742.50;214388;1303;22612;-73
2022/10/15 21:14:27;;;;;;;14.50;8.50;;;;;;;12.96;87.25;98745.02;214413;1304;22601;-73
2022/10/15 21:19:29;;;;;;;16.70;9.00;;;;;;;12.98;87.36;98747.66;214449;1309;22540;-73
2022/10/15 21:24:33;;;;;;;13.10;8.70;;;;;;;13.00;87.42;98753.16;214391;1304;23405;-73
2022/10/15 21:29:35;;;;;;;10.50;7.20;;;;;;;13.01;87.43;98754.89;214649;1310;24234;-73
2022/10/15 21:34:37;;;;;;;11.90;7.70;;;;;;;13.04;87.55;98753.63;214373;1306;23838;-72
2022/10/15 21:39:38;;;;;;;14.00;7.60;;;;;;;13.05;87.52;98752.84;214558;1310;24084;-73
2022/10/15 21:44:40;;;;;;;14.90;7.80;;;;;;;13.07;87.66;98761.51;214379;1310;22724;-73
2022/10/15 21:49:44;;;;;;;13.30;7.40;;;;;;;13.09;87.78;98769.13;214453;1310;22630;-73
2022/10/15 21:54:46;;;;;;;10.70;6.90;;;;;;;13.11;87.80;98773.61;214412;1310;22477;-73
2022/10/15 21:59:48;;;;;;;11.70;7.70;;;;;;;13.13;87.80;98769.59;214582;1310;25470;-74
2022/10/15 22:04:50;;;;;;;10.50;7.20;;;;;;;13.14;87.85;98772.75;214442;1310;22989;-74
2022/10/15 22:09:51;;;;;;;12.50;7.10;;;;;;;13.14;87.93;98769.92;214431;1310;22542;-73
2022/10/15 22:14:53;;;;;;;11.90;7.40;;;;;;;13.14;87.93;98765.64;214526;1311;22618;-73
2022/10/15 22:19:55;;;;;;;9.60;6.30;;;;;;;13.12;87.83;98772.23;214344;1311;24467;-73
2022/10/15 22:24:58;;;;;;;8.80;6.60;;;;;;;13.07;88.07;98772.03;214443;1307;22481;-73
2022/10/15 22:30:00;;;;;;;11.00;7.40;;;;;;;13.02;88.25;98776.45;214567;1312;22536;-73
2022/10/15 22:35:02;;;;;;;10.80;7.20;;;;;;;12.96;88.43;98774.83;214390;1310;24300;-74
2022/10/15 22:40:04;;;;;;;10.70;6.90;;;;;;;12.88;88.54;98777.41;214537;1311;23966;-74
2022/10/15 22:45:07;;;;;;;10.20;7.40;;;;;;;12.80;88.63;98774.69;214451;1307;22520;-73
2022/10/15 22:50:09;;;;;;;9.90;6.40;;;;;;;12.73;88.76;98776.67;214400;1312;22575;-73
2022/10/15 22:55:10;;;;;;;10.90;7.00;;;;;;;12.67;89.03;98781.27;214444;1304;22486;-73
2022/10/15 23:00:13;;;;;;;10.00;7.30;;;;;;;12.60;89.23;98783.52;214475;1304;24214;-73
2022/10/15 23:05:14;;;;;;;11.90;7.40;;;;;;;12.57;89.81;98791.86;214635;1303;23793;-74
2022/10/15 23:10:16;;;;;;;10.40;7.30;;;;;;;12.55;89.92;98795.70;214647;1311;25299;-73
2022/10/15 23:15:18;;;;;;;10.50;7.50;;;;;;;12.55;89.93;98797.15;214562;1311;25300;-73
2022/10/15 23:20:20;;;;;;;9.50;8.00;;;;;;;12.55;89.89;98796.19;214382;1312;22475;-73
2022/10/15 23:25:22;;;;;;;12.10;8.10;;;;;;;12.56;90.11;98803.64;214451;1311;22593;-73